MUSC

Details ICAO MUSC (SNU)
Name ABEL SANTAMARIA
Region Cuba
Timezone America/Havana (UTC-5.0)
Plans Departing 16
Arriving 43
Stats Elevation 338 ft / 103 m (AMSL)
Location 22.492193° -79.943613°
Runways 1
Magnetic Variation 6.349° W
Sunrise 2017-12-13 11:52:21 UTC / 2017-12-13 06:52:21 Local
Sunset 2017-12-13 22:38:38 UTC / 2017-12-13 17:38:38 Local
Advertisement - Login to hide

Runways

ID Width Length Bearing (true) Bearing (mag) Surface Threshold Offset Overrun Length
08 148 ft / 45 m 9,888 ft / 3,014 m 76.05° 82.40° Asphalt 0 ft / 0 m 0 ft / 0 m
26 148 ft / 45 m 9,888 ft / 3,014 m 256.06° 262.41° Asphalt 0 ft / 0 m 0 ft / 0 m

Map

Weather


0- 5 10 15 20 25 30 35+ Temperature / ° C

Clouds and Precipitation
Forecast for 2017-12-14 00:00 UTC. Updated an hour ago

Ground ~20,000 ft ~40,000 ft Winds

METAR

MUSC 131951Z 36005KT 330V030 9000 BKN020 21/15 Q1017

TAF

Not found

Frequencies

Tower 118.10 MHz SANTA CLARA TWR
Warning: Do not use this data for real-world aviation or navigation. No guarantee of current accuracy is given.